Cartwright, Oklahoma
Current Conditions -  °F | °C
As of 10:35 AM on Friday 31 Oct 2014 (Local Time) from KGYI Reporting Station
Clear Clear  
Wind Chill: 57°   Ceiling: Unl
Heat Index: 57°   Visibility: 10mi
Dew Point: 45°   Wind: 22mph
Humidity: 64%   Direction: 10°N
Pressure: 30.35"   Gusts: 26mph
Location:  33.85°N, 96.56°W
Report Text: KGYI 311535Z AUTO 01019G23KT 10SM CLR 14/07 A3035 RMK AO2 T01370071
Loading
Personal Weather Stations






























Interactive Weather Map
Tropical Storm Tracking
New forecast layout! Learn more

10-Day Weather Forecast

Advertisements
Track Severe Weather on mobile